sensor_id;sensor_type;location;lat;lon;timestamp;P1;durP1;ratioP1;P2;durP2;ratioP2
14247;SDS011;7208;49.826;6.004;2022-07-05T00:00:58;1.13;;;1.00;;
14247;SDS011;7208;49.826;6.004;2022-07-05T00:03:24;2.73;;;1.43;;
14247;SDS011;7208;49.826;6.004;2022-07-05T00:05:51;1.30;;;1.20;;
14247;SDS011;7208;49.826;6.004;2022-07-05T00:08:17;1.77;;;1.13;;
14247;SDS011;7208;49.826;6.004;2022-07-05T00:10:43;1.33;;;1.20;;
14247;SDS011;7208;49.826;6.004;2022-07-05T00:13:09;2.20;;;1.37;;
14247;SDS011;7208;49.826;6.004;2022-07-05T00:15:35;0.97;;;0.90;;
14247;SDS011;7208;49.826;6.004;2022-07-05T00:18:01;0.90;;;0.90;;
14247;SDS011;7208;49.826;6.004;2022-07-05T00:20:27;2.20;;;1.27;;
14247;SDS011;7208;49.826;6.004;2022-07-05T00:22:53;1.30;;;1.20;;
14247;SDS011;7208;49.826;6.004;2022-07-05T00:25:18;1.80;;;1.13;;
14247;SDS011;7208;49.826;6.004;2022-07-05T00:27:44;1.13;;;1.03;;
14247;SDS011;7208;49.826;6.004;2022-07-05T00:30:10;1.40;;;1.10;;
14247;SDS011;7208;49.826;6.004;2022-07-05T00:32:36;2.40;;;1.00;;
14247;SDS011;7208;49.826;6.004;2022-07-05T00:35:03;1.77;;;1.10;;
14247;SDS011;7208;49.826;6.004;2022-07-05T00:37:30;0.97;;;0.97;;
14247;SDS011;7208;49.826;6.004;2022-07-05T00:39:55;2.30;;;1.37;;
14247;SDS011;7208;49.826;6.004;2022-07-05T00:42:21;2.10;;;1.40;;
14247;SDS011;7208;49.826;6.004;2022-07-05T00:44:47;1.43;;;1.00;;
14247;SDS011;7208;49.826;6.004;2022-07-05T00:47:12;1.50;;;1.20;;
14247;SDS011;7208;49.826;6.004;2022-07-05T00:49:39;2.83;;;1.33;;
14247;SDS011;7208;49.826;6.004;2022-07-05T00:52:06;1.70;;;1.60;;
14247;SDS011;7208;49.826;6.004;2022-07-05T00:54:32;2.60;;;1.40;;
14247;SDS011;7208;49.826;6.004;2022-07-05T00:57:00;2.13;;;1.43;;
14247;SDS011;7208;49.826;6.004;2022-07-05T00:59:29;1.60;;;1.47;;
14247;SDS011;7208;49.826;6.004;2022-07-05T01:01:56;2.07;;;1.47;;
14247;SDS011;7208;49.826;6.004;2022-07-05T01:04:22;3.23;;;1.33;;
14247;SDS011;7208;49.826;6.004;2022-07-05T01:06:48;1.13;;;1.00;;
14247;SDS011;7208;49.826;6.004;2022-07-05T01:09:15;2.40;;;1.20;;
14247;SDS011;7208;49.826;6.004;2022-07-05T01:11:44;0.97;;;0.97;;
14247;SDS011;7208;49.826;6.004;2022-07-05T01:14:13;1.30;;;1.20;;
14247;SDS011;7208;49.826;6.004;2022-07-05T01:16:42;1.63;;;0.90;;
14247;SDS011;7208;49.826;6.004;2022-07-05T01:19:08;1.13;;;1.03;;
14247;SDS011;7208;49.826;6.004;2022-07-05T01:21:38;1.23;;;1.10;;
14247;SDS011;7208;49.826;6.004;2022-07-05T01:24:05;1.33;;;1.23;;
14247;SDS011;7208;49.826;6.004;2022-07-05T01:26:32;1.17;;;1.13;;
14247;SDS011;7208;49.826;6.004;2022-07-05T01:28:58;1.50;;;1.40;;
14247;SDS011;7208;49.826;6.004;2022-07-05T01:31:24;2.03;;;1.37;;
14247;SDS011;7208;49.826;6.004;2022-07-05T01:33:50;1.43;;;1.33;;
14247;SDS011;7208;49.826;6.004;2022-07-05T01:36:15;1.93;;;1.73;;
14247;SDS011;7208;49.826;6.004;2022-07-05T01:38:42;2.23;;;1.30;;
14247;SDS011;7208;49.826;6.004;2022-07-05T01:41:08;3.10;;;1.40;;
14247;SDS011;7208;49.826;6.004;2022-07-05T01:43:34;3.20;;;1.40;;
14247;SDS011;7208;49.826;6.004;2022-07-05T01:46:01;2.43;;;2.00;;
14247;SDS011;7208;49.826;6.004;2022-07-05T01:48:28;2.73;;;2.10;;
14247;SDS011;7208;49.826;6.004;2022-07-05T01:51:01;2.73;;;2.53;;
14247;SDS011;7208;49.826;6.004;2022-07-05T01:53:31;5.57;;;3.07;;
14247;SDS011;7208;49.826;6.004;2022-07-05T01:56:01;3.33;;;2.90;;
14247;SDS011;7208;49.826;6.004;2022-07-05T01:58:28;3.27;;;2.73;;
14247;SDS011;7208;49.826;6.004;2022-07-05T02:00:55;2.77;;;2.40;;
14247;SDS011;7208;49.826;6.004;2022-07-05T02:03:22;3.00;;;2.57;;
14247;SDS011;7208;49.826;6.004;2022-07-05T02:05:48;4.33;;;2.80;;
14247;SDS011;7208;49.826;6.004;2022-07-05T02:08:15;2.47;;;2.27;;
14247;SDS011;7208;49.826;6.004;2022-07-05T02:10:41;3.60;;;2.70;;
14247;SDS011;7208;49.826;6.004;2022-07-05T02:13:08;4.97;;;2.80;;
14247;SDS011;7208;49.826;6.004;2022-07-05T02:15:35;2.63;;;2.43;;
14247;SDS011;7208;49.826;6.004;2022-07-05T02:18:03;3.57;;;2.90;;
14247;SDS011;7208;49.826;6.004;2022-07-05T02:20:30;3.87;;;2.93;;
14247;SDS011;7208;49.826;6.004;2022-07-05T02:22:56;5.00;;;2.77;;
14247;SDS011;7208;49.826;6.004;2022-07-05T02:25:23;4.50;;;2.80;;
14247;SDS011;7208;49.826;6.004;2022-07-05T02:27:49;4.40;;;2.70;;
14247;SDS011;7208;49.826;6.004;2022-07-05T02:30:16;3.43;;;3.10;;
14247;SDS011;7208;49.826;6.004;2022-07-05T02:32:42;3.10;;;2.90;;
14247;SDS011;7208;49.826;6.004;2022-07-05T02:35:08;3.03;;;2.73;;
14247;SDS011;7208;49.826;6.004;2022-07-05T02:37:35;3.87;;;3.00;;
14247;SDS011;7208;49.826;6.004;2022-07-05T02:40:02;4.37;;;3.00;;
14247;SDS011;7208;49.826;6.004;2022-07-05T02:42:29;3.70;;;3.40;;
14247;SDS011;7208;49.826;6.004;2022-07-05T02:44:55;5.20;;;3.60;;
14247;SDS011;7208;49.826;6.004;2022-07-05T02:47:20;3.40;;;3.10;;
14247;SDS011;7208;49.826;6.004;2022-07-05T02:49:46;4.30;;;3.30;;
14247;SDS011;7208;49.826;6.004;2022-07-05T02:52:12;3.93;;;3.53;;
14247;SDS011;7208;49.826;6.004;2022-07-05T02:54:38;5.03;;;3.43;;
14247;SDS011;7208;49.826;6.004;2022-07-05T02:57:04;5.63;;;3.70;;
14247;SDS011;7208;49.826;6.004;2022-07-05T02:59:30;4.57;;;3.57;;
14247;SDS011;7208;49.826;6.004;2022-07-05T03:01:56;4.30;;;3.90;;
14247;SDS011;7208;49.826;6.004;2022-07-05T03:04:22;4.57;;;4.17;;
14247;SDS011;7208;49.826;6.004;2022-07-05T03:06:47;6.23;;;3.83;;
14247;SDS011;7208;49.826;6.004;2022-07-05T03:09:13;4.97;;;3.97;;
14247;SDS011;7208;49.826;6.004;2022-07-05T03:11:39;5.47;;;4.17;;
14247;SDS011;7208;49.826;6.004;2022-07-05T03:14:04;5.00;;;4.03;;
14247;SDS011;7208;49.826;6.004;2022-07-05T03:16:30;4.30;;;3.90;;
14247;SDS011;7208;49.826;6.004;2022-07-05T03:18:56;4.23;;;3.93;;
14247;SDS011;7208;49.826;6.004;2022-07-05T03:21:21;5.10;;;4.70;;
14247;SDS011;7208;49.826;6.004;2022-07-05T03:23:48;6.60;;;4.00;;
14247;SDS011;7208;49.826;6.004;2022-07-05T03:26:13;5.03;;;4.00;;
14247;SDS011;7208;49.826;6.004;2022-07-05T03:28:39;7.47;;;4.13;;
14247;SDS011;7208;49.826;6.004;2022-07-05T03:31:05;5.30;;;4.80;;
14247;SDS011;7208;49.826;6.004;2022-07-05T03:33:31;4.57;;;4.17;;
14247;SDS011;7208;49.826;6.004;2022-07-05T03:35:56;5.87;;;4.80;;
14247;SDS011;7208;49.826;6.004;2022-07-05T03:38:22;7.40;;;4.80;;
14247;SDS011;7208;49.826;6.004;2022-07-05T03:40:48;5.67;;;4.90;;
14247;SDS011;7208;49.826;6.004;2022-07-05T03:43:14;6.10;;;5.50;;
14247;SDS011;7208;49.826;6.004;2022-07-05T03:45:39;5.73;;;5.10;;
14247;SDS011;7208;49.826;6.004;2022-07-05T03:48:05;7.43;;;5.10;;
14247;SDS011;7208;49.826;6.004;2022-07-05T03:50:31;8.10;;;6.37;;
14247;SDS011;7208;49.826;6.004;2022-07-05T03:52:56;6.00;;;5.50;;
14247;SDS011;7208;49.826;6.004;2022-07-05T03:55:22;6.83;;;5.90;;
14247;SDS011;7208;49.826;6.004;2022-07-05T03:57:48;7.27;;;5.07;;
14247;SDS011;7208;49.826;6.004;2022-07-05T04:00:14;6.80;;;5.77;;
14247;SDS011;7208;49.826;6.004;2022-07-05T04:02:40;7.63;;;5.60;;
14247;SDS011;7208;49.826;6.004;2022-07-05T04:05:06;8.20;;;5.93;;
14247;SDS011;7208;49.826;6.004;2022-07-05T04:07:32;9.53;;;6.23;;
14247;SDS011;7208;49.826;6.004;2022-07-05T04:09:58;6.70;;;6.10;;
14247;SDS011;7208;49.826;6.004;2022-07-05T04:12:24;7.40;;;6.23;;
14247;SDS011;7208;49.826;6.004;2022-07-05T04:14:50;7.23;;;6.57;;
14247;SDS011;7208;49.826;6.004;2022-07-05T04:17:16;7.20;;;6.47;;
14247;SDS011;7208;49.826;6.004;2022-07-05T04:19:42;10.83;;;6.87;;
14247;SDS011;7208;49.826;6.004;2022-07-05T04:22:08;7.70;;;6.33;;
14247;SDS011;7208;49.826;6.004;2022-07-05T04:24:33;10.00;;;6.80;;
14247;SDS011;7208;49.826;6.004;2022-07-05T04:27:22;6.87;;;6.27;;
14247;SDS011;7208;49.826;6.004;2022-07-05T04:29:47;6.83;;;5.97;;
14247;SDS011;7208;49.826;6.004;2022-07-05T04:32:13;8.00;;;5.80;;
14247;SDS011;7208;49.826;6.004;2022-07-05T04:34:39;8.00;;;7.17;;
14247;SDS011;7208;49.826;6.004;2022-07-05T04:37:04;10.97;;;6.83;;
14247;SDS011;7208;49.826;6.004;2022-07-05T04:39:30;6.40;;;5.80;;
14247;SDS011;7208;49.826;6.004;2022-07-05T04:41:55;7.13;;;6.43;;
14247;SDS011;7208;49.826;6.004;2022-07-05T04:44:21;7.83;;;6.50;;
14247;SDS011;7208;49.826;6.004;2022-07-05T04:46:47;8.73;;;5.83;;
14247;SDS011;7208;49.826;6.004;2022-07-05T04:49:12;6.03;;;5.53;;
14247;SDS011;7208;49.826;6.004;2022-07-05T04:51:38;7.43;;;6.10;;
14247;SDS011;7208;49.826;6.004;2022-07-05T04:54:03;7.00;;;6.40;;
14247;SDS011;7208;49.826;6.004;2022-07-05T04:56:29;7.07;;;6.40;;
14247;SDS011;7208;49.826;6.004;2022-07-05T04:58:55;6.90;;;6.20;;
14247;SDS011;7208;49.826;6.004;2022-07-05T05:01:20;6.50;;;5.87;;
14247;SDS011;7208;49.826;6.004;2022-07-05T05:03:46;6.27;;;5.63;;
14247;SDS011;7208;49.826;6.004;2022-07-05T05:06:12;6.80;;;6.13;;
14247;SDS011;7208;49.826;6.004;2022-07-05T05:08:39;8.60;;;6.00;;
14247;SDS011;7208;49.826;6.004;2022-07-05T05:11:06;7.20;;;6.50;;
14247;SDS011;7208;49.826;6.004;2022-07-05T05:13:32;7.53;;;6.00;;
14247;SDS011;7208;49.826;6.004;2022-07-05T05:15:58;6.00;;;5.30;;
14247;SDS011;7208;49.826;6.004;2022-07-05T05:18:24;6.03;;;5.47;;
14247;SDS011;7208;49.826;6.004;2022-07-05T05:20:52;9.10;;;5.67;;
14247;SDS011;7208;49.826;6.004;2022-07-05T05:23:19;6.97;;;5.37;;
14247;SDS011;7208;49.826;6.004;2022-07-05T05:25:45;7.20;;;6.03;;
14247;SDS011;7208;49.826;6.004;2022-07-05T05:28:10;8.17;;;6.13;;
14247;SDS011;7208;49.826;6.004;2022-07-05T05:30:36;6.57;;;5.97;;
14247;SDS011;7208;49.826;6.004;2022-07-05T05:33:02;7.13;;;5.60;;
14247;SDS011;7208;49.826;6.004;2022-07-05T05:35:27;6.53;;;6.00;;
14247;SDS011;7208;49.826;6.004;2022-07-05T05:37:54;6.40;;;5.80;;
14247;SDS011;7208;49.826;6.004;2022-07-05T05:40:21;7.30;;;5.23;;
14247;SDS011;7208;49.826;6.004;2022-07-05T05:42:48;5.53;;;4.97;;
14247;SDS011;7208;49.826;6.004;2022-07-05T05:45:15;5.90;;;5.30;;
14247;SDS011;7208;49.826;6.004;2022-07-05T05:50:31;5.83;;;5.17;;
14247;SDS011;7208;49.826;6.004;2022-07-05T05:53:01;5.70;;;4.80;;
14247;SDS011;7208;49.826;6.004;2022-07-05T05:55:28;5.30;;;4.83;;
14247;SDS011;7208;49.826;6.004;2022-07-05T05:57:54;5.63;;;4.37;;
14247;SDS011;7208;49.826;6.004;2022-07-05T06:00:22;5.13;;;4.63;;
14247;SDS011;7208;49.826;6.004;2022-07-05T06:02:49;7.43;;;5.30;;
14247;SDS011;7208;49.826;6.004;2022-07-05T06:05:16;4.77;;;4.37;;
14247;SDS011;7208;49.826;6.004;2022-07-05T06:07:52;5.33;;;4.83;;
14247;SDS011;7208;49.826;6.004;2022-07-05T06:10:23;5.20;;;4.70;;
14247;SDS011;7208;49.826;6.004;2022-07-05T06:12:51;6.03;;;5.53;;
14247;SDS011;7208;49.826;6.004;2022-07-05T06:15:19;5.47;;;4.97;;
14247;SDS011;7208;49.826;6.004;2022-07-05T06:17:45;5.73;;;5.23;;
14247;SDS011;7208;49.826;6.004;2022-07-05T06:20:19;5.03;;;4.63;;
14247;SDS011;7208;49.826;6.004;2022-07-05T06:22:46;5.20;;;4.80;;
14247;SDS011;7208;49.826;6.004;2022-07-05T06:25:12;4.90;;;4.40;;
14247;SDS011;7208;49.826;6.004;2022-07-05T06:27:38;7.17;;;5.60;;
14247;SDS011;7208;49.826;6.004;2022-07-05T06:30:05;5.70;;;5.20;;
14247;SDS011;7208;49.826;6.004;2022-07-05T06:32:32;6.90;;;5.60;;
14247;SDS011;7208;49.826;6.004;2022-07-05T06:34:57;5.53;;;5.03;;
14247;SDS011;7208;49.826;6.004;2022-07-05T06:37:23;5.60;;;5.10;;
14247;SDS011;7208;49.826;6.004;2022-07-05T06:39:49;7.13;;;5.87;;
14247;SDS011;7208;49.826;6.004;2022-07-05T06:42:14;5.47;;;4.97;;
14247;SDS011;7208;49.826;6.004;2022-07-05T06:44:41;4.93;;;4.53;;
14247;SDS011;7208;49.826;6.004;2022-07-05T06:47:07;7.87;;;5.17;;
14247;SDS011;7208;49.826;6.004;2022-07-05T06:49:33;5.23;;;4.70;;
14247;SDS011;7208;49.826;6.004;2022-07-05T06:51:58;5.43;;;4.70;;
14247;SDS011;7208;49.826;6.004;2022-07-05T06:54:24;6.03;;;4.30;;
14247;SDS011;7208;49.826;6.004;2022-07-05T06:56:49;6.97;;;4.80;;
14247;SDS011;7208;49.826;6.004;2022-07-05T06:59:15;4.73;;;4.00;;
14247;SDS011;7208;49.826;6.004;2022-07-05T07:01:41;4.47;;;4.07;;
14247;SDS011;7208;49.826;6.004;2022-07-05T07:04:06;6.00;;;3.87;;
14247;SDS011;7208;49.826;6.004;2022-07-05T07:06:32;4.63;;;4.00;;
14247;SDS011;7208;49.826;6.004;2022-07-05T07:08:58;5.13;;;4.03;;
14247;SDS011;7208;49.826;6.004;2022-07-05T07:11:42;4.47;;;4.10;;
14247;SDS011;7208;49.826;6.004;2022-07-05T07:14:07;4.33;;;3.97;;
14247;SDS011;7208;49.826;6.004;2022-07-05T07:16:33;4.83;;;4.30;;
14247;SDS011;7208;49.826;6.004;2022-07-05T07:18:58;5.50;;;4.37;;
14247;SDS011;7208;49.826;6.004;2022-07-05T07:21:24;4.70;;;3.83;;
14247;SDS011;7208;49.826;6.004;2022-07-05T07:23:50;4.33;;;3.93;;
14247;SDS011;7208;49.826;6.004;2022-07-05T07:26:15;4.43;;;3.90;;
14247;SDS011;7208;49.826;6.004;2022-07-05T07:28:41;4.50;;;4.10;;
14247;SDS011;7208;49.826;6.004;2022-07-05T07:31:07;4.17;;;3.77;;
14247;SDS011;7208;49.826;6.004;2022-07-05T07:33:33;4.73;;;3.80;;
14247;SDS011;7208;49.826;6.004;2022-07-05T07:35:59;5.27;;;4.20;;
14247;SDS011;7208;49.826;6.004;2022-07-05T07:38:25;3.80;;;3.50;;
14247;SDS011;7208;49.826;6.004;2022-07-05T07:40:51;4.13;;;3.77;;
14247;SDS011;7208;49.826;6.004;2022-07-05T07:43:17;5.63;;;4.10;;
14247;SDS011;7208;49.826;6.004;2022-07-05T07:45:43;4.33;;;3.63;;
14247;SDS011;7208;49.826;6.004;2022-07-05T07:48:09;6.43;;;3.40;;
14247;SDS011;7208;49.826;6.004;2022-07-05T07:50:35;3.10;;;2.67;;
14247;SDS011;7208;49.826;6.004;2022-07-05T07:53:00;4.90;;;3.00;;
14247;SDS011;7208;49.826;6.004;2022-07-05T07:55:26;3.30;;;3.00;;
14247;SDS011;7208;49.826;6.004;2022-07-05T07:57:52;2.87;;;2.30;;
14247;SDS011;7208;49.826;6.004;2022-07-05T08:00:18;2.30;;;1.93;;
14247;SDS011;7208;49.826;6.004;2022-07-05T08:02:43;5.13;;;2.27;;
14247;SDS011;7208;49.826;6.004;2022-07-05T08:05:09;3.37;;;2.43;;
14247;SDS011;7208;49.826;6.004;2022-07-05T08:07:35;1.63;;;1.53;;
14247;SDS011;7208;49.826;6.004;2022-07-05T08:10:02;2.40;;;2.20;;
14247;SDS011;7208;49.826;6.004;2022-07-05T08:12:29;2.03;;;1.83;;
14247;SDS011;7208;49.826;6.004;2022-07-05T08:14:55;3.53;;;2.37;;
14247;SDS011;7208;49.826;6.004;2022-07-05T08:17:20;2.37;;;1.73;;
14247;SDS011;7208;49.826;6.004;2022-07-05T08:19:46;2.80;;;2.10;;
14247;SDS011;7208;49.826;6.004;2022-07-05T08:22:31;3.40;;;2.20;;
14247;SDS011;7208;49.826;6.004;2022-07-05T08:24:57;3.97;;;2.30;;
14247;SDS011;7208;49.826;6.004;2022-07-05T08:27:23;1.87;;;1.73;;
14247;SDS011;7208;49.826;6.004;2022-07-05T08:29:49;3.83;;;1.80;;
14247;SDS011;7208;49.826;6.004;2022-07-05T08:32:15;1.57;;;1.47;;
14247;SDS011;7208;49.826;6.004;2022-07-05T08:34:41;1.80;;;1.60;;
14247;SDS011;7208;49.826;6.004;2022-07-05T08:37:07;1.97;;;1.73;;
14247;SDS011;7208;49.826;6.004;2022-07-05T08:39:33;1.83;;;1.60;;
14247;SDS011;7208;49.826;6.004;2022-07-05T08:41:59;2.47;;;1.50;;
14247;SDS011;7208;49.826;6.004;2022-07-05T08:44:26;4.37;;;1.10;;
14247;SDS011;7208;49.826;6.004;2022-07-05T08:46:53;2.03;;;1.07;;
14247;SDS011;7208;49.826;6.004;2022-07-05T08:49:27;1.47;;;0.80;;
14247;SDS011;7208;49.826;6.004;2022-07-05T08:51:56;1.40;;;1.10;;
14247;SDS011;7208;49.826;6.004;2022-07-05T08:54:23;1.53;;;0.90;;
14247;SDS011;7208;49.826;6.004;2022-07-05T08:56:49;1.13;;;0.80;;
14247;SDS011;7208;49.826;6.004;2022-07-05T08:59:15;1.00;;;0.80;;
14247;SDS011;7208;49.826;6.004;2022-07-05T09:01:41;1.20;;;1.10;;
14247;SDS011;7208;49.826;6.004;2022-07-05T09:04:13;1.60;;;1.43;;
14247;SDS011;7208;49.826;6.004;2022-07-05T09:06:41;2.10;;;1.03;;
14247;SDS011;7208;49.826;6.004;2022-07-05T09:09:10;1.63;;;1.40;;
14247;SDS011;7208;49.826;6.004;2022-07-05T09:11:38;1.57;;;1.10;;
14247;SDS011;7208;49.826;6.004;2022-07-05T09:14:06;2.00;;;1.40;;
14247;SDS011;7208;49.826;6.004;2022-07-05T09:16:43;1.87;;;1.47;;
14247;SDS011;7208;49.826;6.004;2022-07-05T09:19:08;1.33;;;1.10;;
14247;SDS011;7208;49.826;6.004;2022-07-05T09:21:34;2.80;;;1.63;;
14247;SDS011;7208;49.826;6.004;2022-07-05T09:24:01;1.60;;;1.30;;
14247;SDS011;7208;49.826;6.004;2022-07-05T09:26:37;2.90;;;1.20;;
14247;SDS011;7208;49.826;6.004;2022-07-05T09:29:04;1.10;;;1.00;;
14247;SDS011;7208;49.826;6.004;2022-07-05T09:31:33;1.87;;;1.00;;
14247;SDS011;7208;49.826;6.004;2022-07-05T09:34:06;1.27;;;1.00;;
14247;SDS011;7208;49.826;6.004;2022-07-05T09:39:36;3.10;;;1.30;;
14247;SDS011;7208;49.826;6.004;2022-07-05T09:42:19;2.27;;;1.00;;
14247;SDS011;7208;49.826;6.004;2022-07-05T09:47:17;1.17;;;1.00;;
14247;SDS011;7208;49.826;6.004;2022-07-05T09:49:46;2.00;;;0.90;;
14247;SDS011;7208;49.826;6.004;2022-07-05T09:52:29;1.53;;;0.70;;
14247;SDS011;7208;49.826;6.004;2022-07-05T09:55:05;0.80;;;0.80;;
14247;SDS011;7208;49.826;6.004;2022-07-05T09:57:32;1.00;;;0.70;;
14247;SDS011;7208;49.826;6.004;2022-07-05T10:00:00;1.40;;;0.87;;
14247;SDS011;7208;49.826;6.004;2022-07-05T10:07:35;1.67;;;0.70;;
14247;SDS011;7208;49.826;6.004;2022-07-05T10:10:02;2.60;;;1.03;;
14247;SDS011;7208;49.826;6.004;2022-07-05T10:12:28;1.35;;;0.80;;
14247;SDS011;7208;49.826;6.004;2022-07-05T10:14:55;0.98;;;0.70;;
14247;SDS011;7208;49.826;6.004;2022-07-05T10:17:24;0.90;;;0.90;;
14247;SDS011;7208;49.826;6.004;2022-07-05T10:19:51;1.43;;;0.90;;
14247;SDS011;7208;49.826;6.004;2022-07-05T10:22:19;1.17;;;0.90;;
14247;SDS011;7208;49.826;6.004;2022-07-05T10:24:45;0.93;;;0.80;;
14247;SDS011;7208;49.826;6.004;2022-07-05T10:27:10;1.73;;;0.80;;
14247;SDS011;7208;49.826;6.004;2022-07-05T10:29:38;0.90;;;0.70;;
14247;SDS011;7208;49.826;6.004;2022-07-05T10:32:06;1.17;;;0.80;;
14247;SDS011;7208;49.826;6.004;2022-07-05T10:34:36;0.73;;;0.73;;
14247;SDS011;7208;49.826;6.004;2022-07-05T10:37:04;2.27;;;0.80;;
14247;SDS011;7208;49.826;6.004;2022-07-05T10:39:31;0.90;;;0.70;;
14247;SDS011;7208;49.826;6.004;2022-07-05T10:41:57;0.63;;;0.63;;
14247;SDS011;7208;49.826;6.004;2022-07-05T10:44:33;1.07;;;0.70;;
14247;SDS011;7208;49.826;6.004;2022-07-05T10:47:09;1.87;;;0.70;;
14247;SDS011;7208;49.826;6.004;2022-07-05T10:49:36;1.10;;;0.90;;
14247;SDS011;7208;49.826;6.004;2022-07-05T10:52:03;0.63;;;0.63;;
14247;SDS011;7208;49.826;6.004;2022-07-05T10:54:29;1.00;;;0.70;;
14247;SDS011;7208;49.826;6.004;2022-07-05T11:02:37;0.60;;;0.60;;
14247;SDS011;7208;49.826;6.004;2022-07-05T11:05:03;0.60;;;0.60;;
14247;SDS011;7208;49.826;6.004;2022-07-05T11:10:23;0.90;;;0.70;;
14247;SDS011;7208;49.826;6.004;2022-07-05T11:12:50;0.60;;;0.60;;
14247;SDS011;7208;49.826;6.004;2022-07-05T11:15:16;0.73;;;0.60;;
14247;SDS011;7208;49.826;6.004;2022-07-05T11:17:42;0.70;;;0.70;;
14247;SDS011;7208;49.826;6.004;2022-07-05T11:23:00;2.33;;;0.90;;
14247;SDS011;7208;49.826;6.004;2022-07-05T11:25:37;1.07;;;0.87;;
14247;SDS011;7208;49.826;6.004;2022-07-05T11:28:11;1.17;;;0.70;;
14247;SDS011;7208;49.826;6.004;2022-07-05T11:30:48;0.80;;;0.70;;
14247;SDS011;7208;49.826;6.004;2022-07-05T11:33:28;2.20;;;0.87;;
14247;SDS011;7208;49.826;6.004;2022-07-05T11:35:55;1.10;;;0.90;;
14247;SDS011;7208;49.826;6.004;2022-07-05T11:38:25;1.17;;;0.60;;
14247;SDS011;7208;49.826;6.004;2022-07-05T11:40:51;0.80;;;0.80;;
14247;SDS011;7208;49.826;6.004;2022-07-05T11:43:28;1.33;;;0.57;;
14247;SDS011;7208;49.826;6.004;2022-07-05T11:45:56;1.77;;;0.97;;
14247;SDS011;7208;49.826;6.004;2022-07-05T11:48:23;0.93;;;0.80;;
14247;SDS011;7208;49.826;6.004;2022-07-05T11:50:50;1.30;;;0.60;;
14247;SDS011;7208;49.826;6.004;2022-07-05T11:53:29;1.13;;;0.70;;
14247;SDS011;7208;49.826;6.004;2022-07-05T11:55:59;1.50;;;0.97;;
14247;SDS011;7208;49.826;6.004;2022-07-05T11:58:32;0.50;;;0.50;;
14247;SDS011;7208;49.826;6.004;2022-07-05T12:00:58;0.50;;;0.50;;
14247;SDS011;7208;49.826;6.004;2022-07-05T12:03:24;1.40;;;0.63;;
14247;SDS011;7208;49.826;6.004;2022-07-05T12:05:50;0.77;;;0.77;;
14247;SDS011;7208;49.826;6.004;2022-07-05T12:08:21;1.35;;;0.80;;
14247;SDS011;7208;49.826;6.004;2022-07-05T12:10:48;0.85;;;0.70;;
14247;SDS011;7208;49.826;6.004;2022-07-05T12:13:45;0.50;;;0.50;;
14247;SDS011;7208;49.826;6.004;2022-07-05T12:16:11;1.58;;;0.70;;
14247;SDS011;7208;49.826;6.004;2022-07-05T12:18:48;0.50;;;0.50;;
14247;SDS011;7208;49.826;6.004;2022-07-05T12:21:18;0.90;;;0.82;;
14247;SDS011;7208;49.826;6.004;2022-07-05T12:23:47;1.05;;;0.50;;
14247;SDS011;7208;49.826;6.004;2022-07-05T12:26:17;0.93;;;0.60;;
14247;SDS011;7208;49.826;6.004;2022-07-05T12:28:43;0.60;;;0.60;;
14247;SDS011;7208;49.826;6.004;2022-07-05T12:31:20;1.13;;;0.70;;
14247;SDS011;7208;49.826;6.004;2022-07-05T12:33:47;2.17;;;0.60;;
14247;SDS011;7208;49.826;6.004;2022-07-05T12:36:17;0.70;;;0.70;;
14247;SDS011;7208;49.826;6.004;2022-07-05T12:38:45;1.80;;;0.70;;
14247;SDS011;7208;49.826;6.004;2022-07-05T12:41:11;0.50;;;0.50;;
14247;SDS011;7208;49.826;6.004;2022-07-05T12:43:49;2.15;;;0.50;;
14247;SDS011;7208;49.826;6.004;2022-07-05T12:46:36;0.88;;;0.50;;
14247;SDS011;7208;49.826;6.004;2022-07-05T12:49:03;0.73;;;0.68;;
14247;SDS011;7208;49.826;6.004;2022-07-05T12:51:39;0.47;;;0.45;;
14247;SDS011;7208;49.826;6.004;2022-07-05T12:54:07;0.70;;;0.60;;
14247;SDS011;7208;49.826;6.004;2022-07-05T12:57:02;0.40;;;0.40;;
14247;SDS011;7208;49.826;6.004;2022-07-05T13:00:05;0.57;;;0.57;;
14247;SDS011;7208;49.826;6.004;2022-07-05T13:02:36;0.60;;;0.60;;
14247;SDS011;7208;49.826;6.004;2022-07-05T13:05:07;0.88;;;0.68;;
14247;SDS011;7208;49.826;6.004;2022-07-05T13:07:40;0.73;;;0.55;;
14247;SDS011;7208;49.826;6.004;2022-07-05T13:10:19;0.82;;;0.70;;
14247;SDS011;7208;49.826;6.004;2022-07-05T13:12:46;0.88;;;0.70;;
14247;SDS011;7208;49.826;6.004;2022-07-05T13:15:13;0.82;;;0.70;;
14247;SDS011;7208;49.826;6.004;2022-07-05T13:17:39;0.60;;;0.60;;
14247;SDS011;7208;49.826;6.004;2022-07-05T13:20:06;0.60;;;0.50;;
14247;SDS011;7208;49.826;6.004;2022-07-05T13:22:33;0.88;;;0.50;;
14247;SDS011;7208;49.826;6.004;2022-07-05T13:24:58;1.10;;;0.60;;
14247;SDS011;7208;49.826;6.004;2022-07-05T13:27:24;1.60;;;0.70;;
14247;SDS011;7208;49.826;6.004;2022-07-05T13:29:50;1.60;;;0.93;;
14247;SDS011;7208;49.826;6.004;2022-07-05T13:32:16;1.10;;;0.52;;
14247;SDS011;7208;49.826;6.004;2022-07-05T13:34:42;0.60;;;0.60;;
14247;SDS011;7208;49.826;6.004;2022-07-05T13:37:10;2.70;;;0.50;;
14247;SDS011;7208;49.826;6.004;2022-07-05T13:39:35;1.83;;;0.60;;
14247;SDS011;7208;49.826;6.004;2022-07-05T13:42:03;0.73;;;0.60;;
14247;SDS011;7208;49.826;6.004;2022-07-05T13:44:30;1.30;;;0.70;;
14247;SDS011;7208;49.826;6.004;2022-07-05T13:46:56;0.52;;;0.52;;
14247;SDS011;7208;49.826;6.004;2022-07-05T13:49:22;1.40;;;0.50;;
14247;SDS011;7208;49.826;6.004;2022-07-05T13:51:48;1.38;;;0.60;;
14247;SDS011;7208;49.826;6.004;2022-07-05T13:54:14;0.82;;;0.60;;
14247;SDS011;7208;49.826;6.004;2022-07-05T13:56:40;0.82;;;0.57;;
14247;SDS011;7208;49.826;6.004;2022-07-05T13:59:06;0.52;;;0.50;;
14247;SDS011;7208;49.826;6.004;2022-07-05T14:01:32;0.40;;;0.40;;
14247;SDS011;7208;49.826;6.004;2022-07-05T14:03:58;1.30;;;0.50;;
14247;SDS011;7208;49.826;6.004;2022-07-05T14:06:27;0.60;;;0.60;;
14247;SDS011;7208;49.826;6.004;2022-07-05T14:08:57;0.70;;;0.47;;
14247;SDS011;7208;49.826;6.004;2022-07-05T14:11:23;0.52;;;0.52;;
14247;SDS011;7208;49.826;6.004;2022-07-05T14:13:55;1.92;;;0.60;;
14247;SDS011;7208;49.826;6.004;2022-07-05T14:16:22;0.98;;;0.70;;
14247;SDS011;7208;49.826;6.004;2022-07-05T14:18:48;1.45;;;0.60;;
14247;SDS011;7208;49.826;6.004;2022-07-05T14:21:15;1.33;;;0.70;;
14247;SDS011;7208;49.826;6.004;2022-07-05T14:23:41;0.50;;;0.50;;
14247;SDS011;7208;49.826;6.004;2022-07-05T14:26:07;0.70;;;0.60;;
14247;SDS011;7208;49.826;6.004;2022-07-05T14:28:36;2.38;;;0.80;;
14247;SDS011;7208;49.826;6.004;2022-07-05T14:31:02;1.27;;;0.60;;
14247;SDS011;7208;49.826;6.004;2022-07-05T14:33:28;0.70;;;0.55;;
14247;SDS011;7208;49.826;6.004;2022-07-05T14:35:53;0.47;;;0.47;;
14247;SDS011;7208;49.826;6.004;2022-07-05T14:38:19;2.10;;;0.45;;
14247;SDS011;7208;49.826;6.004;2022-07-05T14:40:45;0.47;;;0.47;;
14247;SDS011;7208;49.826;6.004;2022-07-05T14:43:10;0.55;;;0.55;;
14247;SDS011;7208;49.826;6.004;2022-07-05T14:45:36;0.60;;;0.57;;
14247;SDS011;7208;49.826;6.004;2022-07-05T14:48:02;2.47;;;0.70;;
14247;SDS011;7208;49.826;6.004;2022-07-05T14:50:28;0.63;;;0.60;;
14247;SDS011;7208;49.826;6.004;2022-07-05T14:52:54;1.00;;;0.50;;
14247;SDS011;7208;49.826;6.004;2022-07-05T14:55:19;0.60;;;0.50;;
14247;SDS011;7208;49.826;6.004;2022-07-05T14:57:45;0.65;;;0.65;;
14247;SDS011;7208;49.826;6.004;2022-07-05T15:00:12;1.33;;;0.60;;
14247;SDS011;7208;49.826;6.004;2022-07-05T15:02:39;0.70;;;0.70;;
14247;SDS011;7208;49.826;6.004;2022-07-05T15:05:05;0.60;;;0.50;;
14247;SDS011;7208;49.826;6.004;2022-07-05T15:07:32;1.13;;;0.60;;
14247;SDS011;7208;49.826;6.004;2022-07-05T15:09:58;0.52;;;0.52;;
14247;SDS011;7208;49.826;6.004;2022-07-05T15:12:24;0.95;;;0.60;;
14247;SDS011;7208;49.826;6.004;2022-07-05T15:14:50;1.00;;;0.60;;
14247;SDS011;7208;49.826;6.004;2022-07-05T15:17:16;0.40;;;0.40;;
14247;SDS011;7208;49.826;6.004;2022-07-05T15:19:42;1.02;;;0.80;;
14247;SDS011;7208;49.826;6.004;2022-07-05T15:22:07;0.75;;;0.65;;
14247;SDS011;7208;49.826;6.004;2022-07-05T15:24:35;0.80;;;0.60;;
14247;SDS011;7208;49.826;6.004;2022-07-05T15:27:01;0.77;;;0.60;;